sensor_id;sensor_type;location;lat;lon;timestamp;pressure;altitude;pressure_sealevel;temperature;humidity
9935;BME280;5006;41.828;23.478;2022-10-17T00:00:43;91533.28;;;8.19;74.04
9935;BME280;5006;41.828;23.478;2022-10-17T00:01:49;91533.56;;;8.29;73.70
9935;BME280;5006;41.828;23.478;2022-10-17T00:02:54;91532.63;;;8.37;73.98
9935;BME280;5006;41.828;23.478;2022-10-17T00:04:00;91529.69;;;8.42;73.20
9935;BME280;5006;41.828;23.478;2022-10-17T00:05:05;91535.72;;;8.39;73.55
9935;BME280;5006;41.828;23.478;2022-10-17T00:06:12;91544.19;;;8.41;73.02
9935;BME280;5006;41.828;23.478;2022-10-17T00:07:18;91540.06;;;8.44;73.49
9935;BME280;5006;41.828;23.478;2022-10-17T00:08:24;91537.03;;;8.45;72.93
9935;BME280;5006;41.828;23.478;2022-10-17T00:09:30;91538.34;;;8.51;73.34
9935;BME280;5006;41.828;23.478;2022-10-17T00:10:34;91538.13;;;8.01;72.74
9935;BME280;5006;41.828;23.478;2022-10-17T00:11:40;91538.50;;;8.43;73.61
9935;BME280;5006;41.828;23.478;2022-10-17T00:12:45;91540.22;;;8.35;73.88
9935;BME280;5006;41.828;23.478;2022-10-17T00:13:53;91544.53;;;8.55;72.90
9935;BME280;5006;41.828;23.478;2022-10-17T00:14:59;91541.19;;;8.43;73.09
9935;BME280;5006;41.828;23.478;2022-10-17T00:16:07;91539.06;;;7.93;74.78
9935;BME280;5006;41.828;23.478;2022-10-17T00:17:11;91542.56;;;7.42;73.96
9935;BME280;5006;41.828;23.478;2022-10-17T00:18:18;91544.81;;;7.04;76.14
9935;BME280;5006;41.828;23.478;2022-10-17T00:19:23;91552.72;;;6.89;77.53
9935;BME280;5006;41.828;23.478;2022-10-17T00:20:28;91545.69;;;6.72;78.62
9935;BME280;5006;41.828;23.478;2022-10-17T00:21:34;91549.16;;;6.73;78.63
9935;BME280;5006;41.828;23.478;2022-10-17T00:22:39;91539.84;;;7.54;76.64
9935;BME280;5006;41.828;23.478;2022-10-17T00:23:45;91546.59;;;7.64;74.12
9935;BME280;5006;41.828;23.478;2022-10-17T00:24:51;91545.81;;;7.63;74.90
9935;BME280;5006;41.828;23.478;2022-10-17T00:25:57;91544.13;;;7.71;74.03
9935;BME280;5006;41.828;23.478;2022-10-17T00:27:03;91547.13;;;7.81;74.35
9935;BME280;5006;41.828;23.478;2022-10-17T00:28:08;91542.06;;;7.92;74.32
9935;BME280;5006;41.828;23.478;2022-10-17T00:29:14;91539.78;;;7.27;73.07
9935;BME280;5006;41.828;23.478;2022-10-17T00:30:19;91545.63;;;7.56;74.35
9935;BME280;5006;41.828;23.478;2022-10-17T00:31:25;91535.03;;;7.60;74.41
9935;BME280;5006;41.828;23.478;2022-10-17T00:32:30;91541.69;;;7.66;75.69
9935;BME280;5006;41.828;23.478;2022-10-17T00:33:36;91548.03;;;6.74;77.76
9935;BME280;5006;41.828;23.478;2022-10-17T00:34:40;91555.69;;;6.63;78.77
9935;BME280;5006;41.828;23.478;2022-10-17T00:35:45;91544.88;;;7.32;77.67
9935;BME280;5006;41.828;23.478;2022-10-17T00:36:51;91546.09;;;7.34;78.09
9935;BME280;5006;41.828;23.478;2022-10-17T00:37:57;91547.13;;;7.30;77.96
9935;BME280;5006;41.828;23.478;2022-10-17T00:39:03;91549.19;;;7.48;76.99
9935;BME280;5006;41.828;23.478;2022-10-17T00:40:10;91550.09;;;7.40;77.51
9935;BME280;5006;41.828;23.478;2022-10-17T00:41:18;91550.88;;;7.41;77.74
9935;BME280;5006;41.828;23.478;2022-10-17T00:42:25;91551.16;;;6.76;78.64
9935;BME280;5006;41.828;23.478;2022-10-17T00:43:48;91555.81;;;7.15;79.47
9935;BME280;5006;41.828;23.478;2022-10-17T00:45:09;91546.09;;;7.34;78.65
9935;BME280;5006;41.828;23.478;2022-10-17T00:46:17;91553.44;;;7.37;78.32
9935;BME280;5006;41.828;23.478;2022-10-17T00:47:22;91549.97;;;7.49;78.75
9935;BME280;5006;41.828;23.478;2022-10-17T00:48:28;91546.03;;;6.95;77.88
9935;BME280;5006;41.828;23.478;2022-10-17T00:49:34;91540.31;;;7.44;77.29
9935;BME280;5006;41.828;23.478;2022-10-17T00:50:43;91540.88;;;7.38;77.41
9935;BME280;5006;41.828;23.478;2022-10-17T00:51:53;91540.34;;;7.32;77.35
9935;BME280;5006;41.828;23.478;2022-10-17T00:53:01;91535.47;;;7.10;77.82
9935;BME280;5006;41.828;23.478;2022-10-17T00:54:10;91540.59;;;7.15;77.20
9935;BME280;5006;41.828;23.478;2022-10-17T00:55:22;91535.91;;;7.12;77.49
9935;BME280;5006;41.828;23.478;2022-10-17T00:56:28;91539.94;;;6.94;77.73
9935;BME280;5006;41.828;23.478;2022-10-17T00:57:36;91541.97;;;6.29;78.58
9935;BME280;5006;41.828;23.478;2022-10-17T00:58:42;91539.13;;;5.90;80.55
9935;BME280;5006;41.828;23.478;2022-10-17T00:59:52;91535.78;;;5.72;81.41
9935;BME280;5006;41.828;23.478;2022-10-17T01:00:59;91543.19;;;5.67;82.04
9935;BME280;5006;41.828;23.478;2022-10-17T01:02:10;91539.69;;;5.54;83.20
9935;BME280;5006;41.828;23.478;2022-10-17T01:03:16;91545.75;;;6.28;82.14
9935;BME280;5006;41.828;23.478;2022-10-17T01:04:22;91542.53;;;6.34;81.52
9935;BME280;5006;41.828;23.478;2022-10-17T01:05:27;91543.75;;;6.25;82.79
9935;BME280;5006;41.828;23.478;2022-10-17T01:06:33;91538.06;;;5.41;84.55
9935;BME280;5006;41.828;23.478;2022-10-17T01:07:39;91542.28;;;5.22;87.62
9935;BME280;5006;41.828;23.478;2022-10-17T01:08:46;91542.03;;;5.15;88.96
9935;BME280;5006;41.828;23.478;2022-10-17T01:09:52;91543.00;;;5.10;91.43
9935;BME280;5006;41.828;23.478;2022-10-17T01:11:04;91540.63;;;5.17;91.45
9935;BME280;5006;41.828;23.478;2022-10-17T01:12:17;91537.09;;;5.05;91.73
9935;BME280;5006;41.828;23.478;2022-10-17T01:13:29;91540.13;;;4.95;92.72
9935;BME280;5006;41.828;23.478;2022-10-17T01:14:42;91537.63;;;5.60;92.43
9935;BME280;5006;41.828;23.478;2022-10-17T01:16:00;91540.31;;;5.72;90.69
9935;BME280;5006;41.828;23.478;2022-10-17T01:17:14;91539.44;;;5.68;90.87
9935;BME280;5006;41.828;23.478;2022-10-17T01:18:34;91536.44;;;5.08;91.06
9935;BME280;5006;41.828;23.478;2022-10-17T01:19:58;91530.06;;;4.80;94.23
9935;BME280;5006;41.828;23.478;2022-10-17T01:21:39;91541.94;;;4.82;95.60
9935;BME280;5006;41.828;23.478;2022-10-17T01:23:00;91529.31;;;4.71;96.37
9935;BME280;5006;41.828;23.478;2022-10-17T01:24:39;91536.06;;;5.59;94.16
9935;BME280;5006;41.828;23.478;2022-10-17T01:25:53;91535.28;;;5.58;93.41
9935;BME280;5006;41.828;23.478;2022-10-17T01:27:30;91536.63;;;4.82;92.90
9935;BME280;5006;41.828;23.478;2022-10-17T01:29:07;91532.38;;;4.61;98.07
9935;BME280;5006;41.828;23.478;2022-10-17T01:30:56;91532.88;;;4.46;100.00
9935;BME280;5006;41.828;23.478;2022-10-17T01:32:07;91536.47;;;4.50;100.00
9935;BME280;5006;41.828;23.478;2022-10-17T01:33:21;91538.69;;;4.48;100.00
9935;BME280;5006;41.828;23.478;2022-10-17T01:34:34;91541.59;;;5.33;98.33
9935;BME280;5006;41.828;23.478;2022-10-17T01:35:48;91539.78;;;4.76;97.90
9935;BME280;5006;41.828;23.478;2022-10-17T01:37:00;91537.81;;;5.14;99.19
9935;BME280;5006;41.828;23.478;2022-10-17T01:38:08;91538.78;;;4.89;99.65
9935;BME280;5006;41.828;23.478;2022-10-17T01:39:21;91532.88;;;4.46;100.00
9935;BME280;5006;41.828;23.478;2022-10-17T01:40:34;91546.06;;;5.21;98.85
9935;BME280;5006;41.828;23.478;2022-10-17T01:41:42;91544.06;;;5.18;97.06
9935;BME280;5006;41.828;23.478;2022-10-17T01:42:54;91550.75;;;5.44;94.70
9935;BME280;5006;41.828;23.478;2022-10-17T01:44:04;91545.94;;;5.38;94.26
9935;BME280;5006;41.828;23.478;2022-10-17T01:45:17;91546.34;;;5.28;94.37
9935;BME280;5006;41.828;23.478;2022-10-17T01:46:27;91548.13;;;5.36;96.65
9935;BME280;5006;41.828;23.478;2022-10-17T01:47:34;91540.75;;;5.41;95.71
9935;BME280;5006;41.828;23.478;2022-10-17T01:48:41;91551.81;;;5.23;95.11
9935;BME280;5006;41.828;23.478;2022-10-17T01:49:51;91553.22;;;5.29;94.60
9935;BME280;5006;41.828;23.478;2022-10-17T01:51:00;91545.69;;;5.31;95.60
9935;BME280;5006;41.828;23.478;2022-10-17T01:52:11;91540.63;;;5.38;94.97
9935;BME280;5006;41.828;23.478;2022-10-17T01:53:21;91541.00;;;4.78;98.64
9935;BME280;5006;41.828;23.478;2022-10-17T01:54:31;91554.03;;;5.21;97.04
9935;BME280;5006;41.828;23.478;2022-10-17T01:55:43;91548.34;;;5.31;96.12
9935;BME280;5006;41.828;23.478;2022-10-17T01:56:53;91543.50;;;4.54;97.89
9935;BME280;5006;41.828;23.478;2022-10-17T01:58:04;91548.84;;;5.04;98.88
9935;BME280;5006;41.828;23.478;2022-10-17T01:59:13;91546.38;;;4.99;97.68
9935;BME280;5006;41.828;23.478;2022-10-17T02:00:23;91547.44;;;4.98;99.00
9935;BME280;5006;41.828;23.478;2022-10-17T02:01:31;91549.44;;;5.09;99.51
9935;BME280;5006;41.828;23.478;2022-10-17T02:02:39;91546.56;;;5.14;98.72
9935;BME280;5006;41.828;23.478;2022-10-17T02:03:45;91555.13;;;4.33;98.40
9935;BME280;5006;41.828;23.478;2022-10-17T02:04:54;91550.31;;;4.93;100.00
9935;BME280;5006;41.828;23.478;2022-10-17T02:06:00;91551.31;;;4.05;100.00
9935;BME280;5006;41.828;23.478;2022-10-17T02:07:07;91553.06;;;3.93;100.00
9935;BME280;5006;41.828;23.478;2022-10-17T02:08:13;91554.19;;;3.83;100.00
9935;BME280;5006;41.828;23.478;2022-10-17T02:09:21;91551.22;;;4.68;100.00
9935;BME280;5006;41.828;23.478;2022-10-17T02:10:32;91548.34;;;4.81;100.00
9935;BME280;5006;41.828;23.478;2022-10-17T02:11:40;91548.06;;;4.74;100.00
9935;BME280;5006;41.828;23.478;2022-10-17T02:12:50;91545.03;;;4.84;100.00
9935;BME280;5006;41.828;23.478;2022-10-17T02:14:13;91549.03;;;4.99;100.00
9935;BME280;5006;41.828;23.478;2022-10-17T02:15:36;91561.38;;;4.95;100.00
9935;BME280;5006;41.828;23.478;2022-10-17T02:16:51;91556.94;;;3.95;100.00
9935;BME280;5006;41.828;23.478;2022-10-17T02:18:08;91554.00;;;3.97;100.00
9935;BME280;5006;41.828;23.478;2022-10-17T02:19:40;91560.34;;;4.13;100.00
9935;BME280;5006;41.828;23.478;2022-10-17T02:20:53;91560.34;;;4.87;100.00
9935;BME280;5006;41.828;23.478;2022-10-17T02:22:07;91552.69;;;4.19;100.00
9935;BME280;5006;41.828;23.478;2022-10-17T02:23:20;91556.63;;;4.05;100.00
9935;BME280;5006;41.828;23.478;2022-10-17T02:24:34;91564.44;;;3.93;100.00
9935;BME280;5006;41.828;23.478;2022-10-17T02:25:49;91563.19;;;4.45;100.00
9935;BME280;5006;41.828;23.478;2022-10-17T02:26:59;91567.69;;;4.07;100.00
9935;BME280;5006;41.828;23.478;2022-10-17T02:28:17;91556.63;;;3.97;100.00
9935;BME280;5006;41.828;23.478;2022-10-17T02:29:27;91556.63;;;3.97;100.00
9935;BME280;5006;41.828;23.478;2022-10-17T02:30:36;91563.75;;;4.67;100.00
9935;BME280;5006;41.828;23.478;2022-10-17T02:31:50;91565.81;;;4.91;100.00
9935;BME280;5006;41.828;23.478;2022-10-17T02:33:01;91562.44;;;4.44;100.00
9935;BME280;5006;41.828;23.478;2022-10-17T02:34:12;91561.34;;;4.45;100.00
9935;BME280;5006;41.828;23.478;2022-10-17T02:35:28;91559.53;;;4.66;100.00
9935;BME280;5006;41.828;23.478;2022-10-17T02:36:38;91563.09;;;3.79;100.00
9935;BME280;5006;41.828;23.478;2022-10-17T02:37:46;91561.59;;;4.61;100.00
9935;BME280;5006;41.828;23.478;2022-10-17T02:38:53;91565.25;;;4.77;100.00
9935;BME280;5006;41.828;23.478;2022-10-17T02:39:59;91559.16;;;4.76;100.00
9935;BME280;5006;41.828;23.478;2022-10-17T02:41:08;91562.75;;;4.72;100.00
9935;BME280;5006;41.828;23.478;2022-10-17T02:42:14;91564.34;;;4.64;100.00
9935;BME280;5006;41.828;23.478;2022-10-17T02:43:20;91563.44;;;4.60;100.00
9935;BME280;5006;41.828;23.478;2022-10-17T02:44:27;91564.91;;;4.78;100.00
9935;BME280;5006;41.828;23.478;2022-10-17T02:45:36;91562.84;;;4.84;100.00
9935;BME280;5006;41.828;23.478;2022-10-17T02:46:44;91564.16;;;4.78;100.00
9935;BME280;5006;41.828;23.478;2022-10-17T02:47:58;91562.88;;;4.09;100.00
9935;BME280;5006;41.828;23.478;2022-10-17T02:49:11;91568.84;;;3.64;100.00
9935;BME280;5006;41.828;23.478;2022-10-17T02:50:26;91565.34;;;4.51;100.00
9935;BME280;5006;41.828;23.478;2022-10-17T02:51:37;91562.38;;;4.16;100.00
9935;BME280;5006;41.828;23.478;2022-10-17T02:52:47;91567.50;;;4.66;100.00
9935;BME280;5006;41.828;23.478;2022-10-17T02:54:02;91565.97;;;4.19;100.00
9935;BME280;5006;41.828;23.478;2022-10-17T02:55:16;91567.28;;;3.63;100.00
9935;BME280;5006;41.828;23.478;2022-10-17T02:56:23;91568.53;;;3.91;100.00
9935;BME280;5006;41.828;23.478;2022-10-17T02:57:34;91566.63;;;4.00;100.00
9935;BME280;5006;41.828;23.478;2022-10-17T02:58:42;91573.69;;;4.41;100.00
9935;BME280;5006;41.828;23.478;2022-10-17T02:59:52;91569.78;;;4.39;100.00
9935;BME280;5006;41.828;23.478;2022-10-17T03:00:58;91565.53;;;4.46;100.00
9935;BME280;5006;41.828;23.478;2022-10-17T03:02:05;91575.47;;;4.58;100.00
9935;BME280;5006;41.828;23.478;2022-10-17T03:03:23;91564.94;;;4.41;100.00
9935;BME280;5006;41.828;23.478;2022-10-17T03:04:29;91568.31;;;4.58;100.00
9935;BME280;5006;41.828;23.478;2022-10-17T03:05:33;91565.78;;;4.62;100.00
9935;BME280;5006;41.828;23.478;2022-10-17T03:06:39;91566.25;;;4.64;100.00
9935;BME280;5006;41.828;23.478;2022-10-17T03:07:45;91570.31;;;4.61;100.00
9935;BME280;5006;41.828;23.478;2022-10-17T03:08:51;91579.13;;;4.53;100.00
9935;BME280;5006;41.828;23.478;2022-10-17T03:09:55;91571.41;;;4.60;100.00
9935;BME280;5006;41.828;23.478;2022-10-17T03:11:01;91578.75;;;4.63;100.00
9935;BME280;5006;41.828;23.478;2022-10-17T03:12:07;91575.28;;;4.71;100.00
9935;BME280;5006;41.828;23.478;2022-10-17T03:13:14;91573.31;;;4.60;100.00
9935;BME280;5006;41.828;23.478;2022-10-17T03:14:19;91575.88;;;4.48;100.00
9935;BME280;5006;41.828;23.478;2022-10-17T03:15:25;91577.41;;;4.49;100.00
9935;BME280;5006;41.828;23.478;2022-10-17T03:16:29;91580.06;;;4.40;100.00
9935;BME280;5006;41.828;23.478;2022-10-17T03:17:35;91578.31;;;4.53;100.00
9935;BME280;5006;41.828;23.478;2022-10-17T03:18:41;91574.25;;;4.55;100.00
9935;BME280;5006;41.828;23.478;2022-10-17T03:19:47;91583.56;;;4.70;100.00
9935;BME280;5006;41.828;23.478;2022-10-17T03:20:52;91582.22;;;4.55;100.00
9935;BME280;5006;41.828;23.478;2022-10-17T03:21:58;91582.09;;;4.52;100.00
9935;BME280;5006;41.828;23.478;2022-10-17T03:23:03;91577.72;;;4.47;100.00
9935;BME280;5006;41.828;23.478;2022-10-17T03:24:09;91582.56;;;4.45;100.00
9935;BME280;5006;41.828;23.478;2022-10-17T03:25:14;91583.94;;;4.51;100.00
9935;BME280;5006;41.828;23.478;2022-10-17T03:26:20;91584.94;;;4.47;100.00
9935;BME280;5006;41.828;23.478;2022-10-17T03:27:25;91579.13;;;4.45;100.00
9935;BME280;5006;41.828;23.478;2022-10-17T03:28:31;91579.47;;;4.43;100.00
9935;BME280;5006;41.828;23.478;2022-10-17T03:29:36;91576.03;;;4.43;100.00
9935;BME280;5006;41.828;23.478;2022-10-17T03:30:44;91581.53;;;3.58;100.00
9935;BME280;5006;41.828;23.478;2022-10-17T03:31:48;91585.88;;;3.37;100.00
9935;BME280;5006;41.828;23.478;2022-10-17T03:32:56;91584.78;;;3.47;100.00
9935;BME280;5006;41.828;23.478;2022-10-17T03:34:02;91580.09;;;3.86;100.00
9935;BME280;5006;41.828;23.478;2022-10-17T03:35:08;91578.25;;;3.61;100.00
9935;BME280;5006;41.828;23.478;2022-10-17T03:36:15;91585.88;;;3.37;100.00
9935;BME280;5006;41.828;23.478;2022-10-17T03:37:22;91591.00;;;3.42;100.00
9935;BME280;5006;41.828;23.478;2022-10-17T03:38:27;91580.69;;;4.00;100.00
9935;BME280;5006;41.828;23.478;2022-10-17T03:39:33;91580.56;;;3.37;100.00
9935;BME280;5006;41.828;23.478;2022-10-17T03:40:38;91585.25;;;3.40;100.00
9935;BME280;5006;41.828;23.478;2022-10-17T03:41:43;91587.28;;;3.43;100.00
9935;BME280;5006;41.828;23.478;2022-10-17T03:42:48;91586.03;;;3.41;100.00
9935;BME280;5006;41.828;23.478;2022-10-17T03:43:54;91586.94;;;3.87;100.00
9935;BME280;5006;41.828;23.478;2022-10-17T03:44:59;91586.44;;;4.11;100.00
9935;BME280;5006;41.828;23.478;2022-10-17T03:46:05;91585.09;;;3.37;100.00
9935;BME280;5006;41.828;23.478;2022-10-17T03:47:11;91590.09;;;3.38;100.00
9935;BME280;5006;41.828;23.478;2022-10-17T03:48:17;91598.03;;;3.30;100.00
9935;BME280;5006;41.828;23.478;2022-10-17T03:49:23;91592.56;;;3.77;100.00
9935;BME280;5006;41.828;23.478;2022-10-17T03:50:29;91592.56;;;3.26;100.00
9935;BME280;5006;41.828;23.478;2022-10-17T03:51:35;91592.91;;;3.42;100.00
9935;BME280;5006;41.828;23.478;2022-10-17T03:52:46;91590.69;;;3.69;100.00
9935;BME280;5006;41.828;23.478;2022-10-17T03:53:51;91598.38;;;3.45;100.00
9935;BME280;5006;41.828;23.478;2022-10-17T03:54:57;91597.25;;;3.38;100.00
9935;BME280;5006;41.828;23.478;2022-10-17T03:56:09;91600.50;;;4.03;100.00
9935;BME280;5006;41.828;23.478;2022-10-17T03:57:15;91590.09;;;3.30;100.00
9935;BME280;5006;41.828;23.478;2022-10-17T03:58:21;91597.41;;;3.16;100.00
9935;BME280;5006;41.828;23.478;2022-10-17T03:59:27;91604.25;;;4.10;100.00
9935;BME280;5006;41.828;23.478;2022-10-17T04:00:40;91606.13;;;3.16;100.00
9935;BME280;5006;41.828;23.478;2022-10-17T04:01:45;91600.53;;;3.18;100.00
9935;BME280;5006;41.828;23.478;2022-10-17T04:02:51;91600.69;;;3.72;100.00
9935;BME280;5006;41.828;23.478;2022-10-17T04:03:56;91598.50;;;3.32;100.00
9935;BME280;5006;41.828;23.478;2022-10-17T04:05:08;91595.06;;;3.74;100.00
9935;BME280;5006;41.828;23.478;2022-10-17T04:06:13;91590.84;;;3.13;100.00
9935;BME280;5006;41.828;23.478;2022-10-17T04:07:21;91590.19;;;4.01;100.00
9935;BME280;5006;41.828;23.478;2022-10-17T04:08:27;91598.22;;;3.50;100.00
9935;BME280;5006;41.828;23.478;2022-10-17T04:09:59;91595.78;;;4.17;100.00
9935;BME280;5006;41.828;23.478;2022-10-17T04:11:06;91592.16;;;4.21;100.00
9935;BME280;5006;41.828;23.478;2022-10-17T04:12:11;91597.84;;;4.11;100.00
9935;BME280;5006;41.828;23.478;2022-10-17T04:13:17;91595.22;;;3.26;100.00
9935;BME280;5006;41.828;23.478;2022-10-17T04:14:22;91600.66;;;3.04;100.00
9935;BME280;5006;41.828;23.478;2022-10-17T04:15:28;91595.56;;;3.50;100.00
9935;BME280;5006;41.828;23.478;2022-10-17T04:16:33;91588.03;;;3.95;100.00
9935;BME280;5006;41.828;23.478;2022-10-17T04:17:47;91594.63;;;3.55;100.00
9935;BME280;5006;41.828;23.478;2022-10-17T04:18:53;91594.09;;;4.04;100.00
9935;BME280;5006;41.828;23.478;2022-10-17T04:20:00;91597.41;;;3.16;100.00
9935;BME280;5006;41.828;23.478;2022-10-17T04:21:07;91601.31;;;3.35;100.00
9935;BME280;5006;41.828;23.478;2022-10-17T04:22:12;91597.25;;;3.63;100.00
9935;BME280;5006;41.828;23.478;2022-10-17T04:23:17;91605.94;;;4.06;100.00
9935;BME280;5006;41.828;23.478;2022-10-17T04:24:23;91607.72;;;3.26;100.00
9935;BME280;5006;41.828;23.478;2022-10-17T04:25:35;91604.84;;;3.05;100.00
9935;BME280;5006;41.828;23.478;2022-10-17T04:26:41;91600.06;;;3.07;100.00
9935;BME280;5006;41.828;23.478;2022-10-17T04:27:45;91611.63;;;3.45;100.00
9935;BME280;5006;41.828;23.478;2022-10-17T04:28:52;91602.34;;;4.11;100.00
9935;BME280;5006;41.828;23.478;2022-10-17T04:29:57;91600.19;;;4.04;100.00
9935;BME280;5006;41.828;23.478;2022-10-17T04:31:04;91598.31;;;4.05;100.00
9935;BME280;5006;41.828;23.478;2022-10-17T04:32:16;91599.72;;;3.17;100.00
9935;BME280;5006;41.828;23.478;2022-10-17T04:33:26;91599.91;;;3.29;100.00
9935;BME280;5006;41.828;23.478;2022-10-17T04:34:30;91600.69;;;3.21;100.00
9935;BME280;5006;41.828;23.478;2022-10-17T04:35:36;91598.03;;;3.72;100.00
9935;BME280;5006;41.828;23.478;2022-10-17T04:36:45;91604.91;;;3.82;100.00
9935;BME280;5006;41.828;23.478;2022-10-17T04:37:51;91602.50;;;4.14;100.00
9935;BME280;5006;41.828;23.478;2022-10-17T04:38:59;91607.84;;;3.97;100.00
9935;BME280;5006;41.828;23.478;2022-10-17T04:40:07;91600.78;;;4.10;100.00
9935;BME280;5006;41.828;23.478;2022-10-17T04:41:15;91598.13;;;4.18;100.00
9935;BME280;5006;41.828;23.478;2022-10-17T04:42:21;91604.09;;;3.98;100.00
9935;BME280;5006;41.828;23.478;2022-10-17T04:43:29;91601.09;;;4.08;100.00
9935;BME280;5006;41.828;23.478;2022-10-17T04:44:59;91597.22;;;4.06;100.00
9935;BME280;5006;41.828;23.478;2022-10-17T04:46:06;91595.94;;;4.12;100.00
9935;BME280;5006;41.828;23.478;2022-10-17T04:47:11;91595.75;;;4.25;100.00
9935;BME280;5006;41.828;23.478;2022-10-17T04:48:17;91599.19;;;4.25;100.00
9935;BME280;5006;41.828;23.478;2022-10-17T04:49:22;91597.97;;;4.14;100.00
9935;BME280;5006;41.828;23.478;2022-10-17T04:50:31;91600.78;;;4.10;100.00
9935;BME280;5006;41.828;23.478;2022-10-17T04:52:00;91597.00;;;4.27;100.00
9935;BME280;5006;41.828;23.478;2022-10-17T04:53:11;91597.94;;;4.31;100.00
9935;BME280;5006;41.828;23.478;2022-10-17T04:54:16;91595.16;;;4.19;100.00
9935;BME280;5006;41.828;23.478;2022-10-17T04:55:25;91593.22;;;4.37;100.00
9935;BME280;5006;41.828;23.478;2022-10-17T04:56:30;91606.88;;;4.02;100.00
9935;BME280;5006;41.828;23.478;2022-10-17T04:57:36;91606.66;;;4.32;100.00
9935;BME280;5006;41.828;23.478;2022-10-17T04:58:48;91599.38;;;4.58;100.00
9935;BME280;5006;41.828;23.478;2022-10-17T04:59:55;91598.16;;;4.55;100.00
9935;BME280;5006;41.828;23.478;2022-10-17T05:01:21;91599.66;;;4.36;100.00
9935;BME280;5006;41.828;23.478;2022-10-17T05:02:30;91605.13;;;4.22;100.00
9935;BME280;5006;41.828;23.478;2022-10-17T05:03:36;91601.03;;;4.33;100.00
9935;BME280;5006;41.828;23.478;2022-10-17T05:04:41;91597.59;;;4.41;100.00
9935;BME280;5006;41.828;23.478;2022-10-17T05:05:48;91597.56;;;4.50;100.00
9935;BME280;5006;41.828;23.478;2022-10-17T05:06:54;91597.94;;;4.69;100.00
9935;BME280;5006;41.828;23.478;2022-10-17T05:08:20;91600.88;;;4.38;100.00
9935;BME280;5006;41.828;23.478;2022-10-17T05:09:28;91596.63;;;4.46;100.00
9935;BME280;5006;41.828;23.478;2022-10-17T05:10:35;91600.88;;;4.47;100.00
9935;BME280;5006;41.828;23.478;2022-10-17T05:11:42;91599.66;;;4.36;100.00
9935;BME280;5006;41.828;23.478;2022-10-17T05:12:49;91602.69;;;4.55;100.00
9935;BME280;5006;41.828;23.478;2022-10-17T05:13:57;91608.00;;;4.92;100.00
9935;BME280;5006;41.828;23.478;2022-10-17T05:15:04;91611.38;;;5.01;100.00
9935;BME280;5006;41.828;23.478;2022-10-17T05:16:09;91612.72;;;4.87;100.00
9935;BME280;5006;41.828;23.478;2022-10-17T05:17:15;91615.47;;;4.99;100.00
9935;BME280;5006;41.828;23.478;2022-10-17T05:18:20;91611.84;;;5.03;100.00
9935;BME280;5006;41.828;23.478;2022-10-17T05:19:26;91609.69;;;4.97;100.00
9935;BME280;5006;41.828;23.478;2022-10-17T05:20:32;91618.94;;;4.91;100.00
9935;BME280;5006;41.828;23.478;2022-10-17T05:21:38;91610.66;;;4.92;100.00
9935;BME280;5006;41.828;23.478;2022-10-17T05:22:43;91615.94;;;5.01;100.00
9935;BME280;5006;41.828;23.478;2022-10-17T05:23:51;91613.13;;;4.97;100.00
9935;BME280;5006;41.828;23.478;2022-10-17T05:24:55;91618.16;;;4.90;100.00
9935;BME280;5006;41.828;23.478;2022-10-17T05:26:01;91623.81;;;4.89;100.00
9935;BME280;5006;41.828;23.478;2022-10-17T05:27:06;91615.53;;;4.82;100.00
9935;BME280;5006;41.828;23.478;2022-10-17T05:28:11;91623.56;;;5.02;100.00
9935;BME280;5006;41.828;23.478;2022-10-17T05:29:18;91623.81;;;4.89;100.00
9935;BME280;5006;41.828;23.478;2022-10-17T05:30:29;91623.06;;;4.80;100.00
9935;BME280;5006;41.828;23.478;2022-10-17T05:31:38;91633.75;;;5.00;100.00
9935;BME280;5006;41.828;23.478;2022-10-17T05:32:44;91636.84;;;5.11;100.00
9935;BME280;5006;41.828;23.478;2022-10-17T05:33:50;91634.53;;;5.01;100.00
9935;BME280;5006;41.828;23.478;2022-10-17T05:34:55;91641.66;;;5.17;100.00
9935;BME280;5006;41.828;23.478;2022-10-17T05:36:03;91644.78;;;5.19;100.00
9935;BME280;5006;41.828;23.478;2022-10-17T05:37:09;91637.00;;;5.35;100.00
9935;BME280;5006;41.828;23.478;2022-10-17T05:38:15;91638.09;;;5.34;100.00
9935;BME280;5006;41.828;23.478;2022-10-17T05:39:23;91634.88;;;5.49;100.00
9935;BME280;5006;41.828;23.478;2022-10-17T05:40:29;91638.47;;;5.53;100.00
9935;BME280;5006;41.828;23.478;2022-10-17T05:41:36;91643.66;;;5.49;100.00
9935;BME280;5006;41.828;23.478;2022-10-17T05:42:44;91643.78;;;5.53;100.00
9935;BME280;5006;41.828;23.478;2022-10-17T05:43:50;91643.78;;;5.53;100.00
9935;BME280;5006;41.828;23.478;2022-10-17T05:44:59;91648.25;;;5.61;100.00
9935;BME280;5006;41.828;23.478;2022-10-17T05:46:05;91643.75;;;5.82;100.00
9935;BME280;5006;41.828;23.478;2022-10-17T05:47:10;91641.09;;;6.02;100.00
9935;BME280;5006;41.828;23.478;2022-10-17T05:48:16;91646.34;;;5.90;100.00
9935;BME280;5006;41.828;23.478;2022-10-17T05:49:21;91643.91;;;5.85;100.00
9935;BME280;5006;41.828;23.478;2022-10-17T05:50:27;91647.84;;;6.00;100.00
9935;BME280;5006;41.828;23.478;2022-10-17T05:51:40;91649.41;;;6.01;100.00
9935;BME280;5006;41.828;23.478;2022-10-17T05:52:46;91652.91;;;6.13;100.00
9935;BME280;5006;41.828;23.478;2022-10-17T05:53:53;91653.41;;;6.27;100.00
9935;BME280;5006;41.828;23.478;2022-10-17T05:55:05;91659.34;;;6.44;100.00
9935;BME280;5006;41.828;23.478;2022-10-17T05:56:11;91658.16;;;6.54;100.00
9935;BME280;5006;41.828;23.478;2022-10-17T05:57:18;91661.94;;;6.53;100.00
9935;BME280;5006;41.828;23.478;2022-10-17T05:58:22;91656.06;;;6.59;100.00
9935;BME280;5006;41.828;23.478;2022-10-17T05:59:32;91664.41;;;6.58;100.00
9935;BME280;5006;41.828;23.478;2022-10-17T06:00:45;91667.63;;;6.63;100.00
9935;BME280;5006;41.828;23.478;2022-10-17T06:01:51;91666.97;;;6.66;100.00
9935;BME280;5006;41.828;23.478;2022-10-17T06:02:56;91669.25;;;6.56;100.00
9935;BME280;5006;41.828;23.478;2022-10-17T06:04:02;91672.41;;;6.37;100.00
9935;BME280;5006;41.828;23.478;2022-10-17T06:05:08;91671.84;;;6.32;100.00
9935;BME280;5006;41.828;23.478;2022-10-17T06:06:14;91675.06;;;6.37;100.00
9935;BME280;5006;41.828;23.478;2022-10-17T06:07:21;91673.00;;;6.43;100.00
9935;BME280;5006;41.828;23.478;2022-10-17T06:08:27;91673.41;;;6.65;100.00
9935;BME280;5006;41.828;23.478;2022-10-17T06:09:32;91690.06;;;6.62;100.00
9935;BME280;5006;41.828;23.478;2022-10-17T06:10:38;91683.28;;;6.65;100.00
9935;BME280;5006;41.828;23.478;2022-10-17T06:11:45;91679.31;;;6.83;100.00